createdAt,value
2023-05-06T00:01:34.250Z,20.47
2023-05-06T00:04:00.858Z,20.42
2023-05-06T00:06:28.862Z,20.35
2023-05-06T00:08:55.416Z,20.30
2023-05-06T00:11:21.989Z,20.38
2023-05-06T00:13:48.970Z,20.43
2023-05-06T00:16:15.766Z,20.37
2023-05-06T00:18:42.360Z,20.37
2023-05-06T00:21:08.884Z,20.40
2023-05-06T00:23:35.453Z,20.52
2023-05-06T00:26:02.338Z,20.52
2023-05-06T00:28:29.013Z,20.45
2023-05-06T00:30:55.554Z,20.39
2023-05-06T00:33:22.143Z,20.36
2023-05-06T00:35:49.021Z,20.31
2023-05-06T00:38:15.597Z,20.35
2023-05-06T00:40:42.693Z,20.27
2023-05-06T00:43:09.353Z,20.23
2023-05-06T00:45:36.808Z,20.12
2023-05-06T00:48:05.216Z,20.23
2023-05-06T00:50:34.388Z,20.13
2023-05-06T00:53:03.558Z,20.13
2023-05-06T00:55:31.304Z,20.10
2023-05-06T00:57:58.645Z,19.88
2023-05-06T01:00:25.567Z,19.89
2023-05-06T01:02:52.311Z,19.92
2023-05-06T01:05:23.661Z,19.85
2023-05-06T01:08:06.772Z,19.88
2023-05-06T01:10:57.620Z,19.84
2023-05-06T01:13:48.991Z,19.82
2023-05-06T01:16:20.049Z,19.65
2023-05-06T01:18:49.409Z,19.61
2023-05-06T01:21:18.569Z,19.55
2023-05-06T01:23:52.693Z,19.53
2023-05-06T01:26:19.449Z,19.48
2023-05-06T01:28:46.022Z,19.60
2023-05-06T01:31:16.723Z,19.67
2023-05-06T01:34:08.194Z,19.69
2023-05-06T01:36:43.598Z,19.77
2023-05-06T01:39:17.335Z,19.63
2023-05-06T01:41:47.057Z,19.64
2023-05-06T01:44:14.967Z,19.60
2023-05-06T01:46:44.376Z,19.57
2023-05-06T01:49:15.805Z,19.71
2023-05-06T01:51:51.294Z,19.70
2023-05-06T01:54:18.158Z,19.63
2023-05-06T01:56:45.024Z,19.61
2023-05-06T01:59:11.590Z,19.60
2023-05-06T02:01:38.168Z,19.69
2023-05-06T02:04:07.093Z,19.69
2023-05-06T02:06:34.128Z,19.54
2023-05-06T02:09:00.688Z,19.60
2023-05-06T02:11:27.370Z,19.53
2023-05-06T02:14:01.929Z,19.42
2023-05-06T02:16:30.197Z,19.54
2023-05-06T02:18:56.880Z,19.56
2023-05-06T02:21:23.657Z,19.57
2023-05-06T02:23:50.602Z,19.43
2023-05-06T02:26:17.510Z,19.39
2023-05-06T02:28:44.139Z,19.34
2023-05-06T02:31:16.081Z,19.26
2023-05-06T02:33:43.415Z,19.28
2023-05-06T02:36:11.215Z,19.27
2023-05-06T02:38:37.719Z,19.29
2023-05-06T02:41:04.258Z,19.30
2023-05-06T02:43:30.819Z,19.26
2023-05-06T02:45:58.249Z,19.31
2023-05-06T02:48:25.731Z,19.35
2023-05-06T02:50:52.238Z,19.49
2023-05-06T02:53:18.778Z,19.53
2023-05-06T02:55:45.646Z,19.45
2023-05-06T02:58:12.193Z,19.56
2023-05-06T03:00:38.740Z,19.66
2023-05-06T03:03:05.427Z,19.37
2023-05-06T03:05:31.969Z,19.40
2023-05-06T03:07:58.791Z,19.40
2023-05-06T03:10:25.484Z,19.45
2023-05-06T03:12:52.059Z,19.57
2023-05-06T03:15:18.834Z,19.41
2023-05-06T03:17:47.061Z,19.41
2023-05-06T03:20:13.810Z,19.29
2023-05-06T03:22:45.954Z,19.54
2023-05-06T03:25:12.703Z,19.64
2023-05-06T03:27:41.014Z,19.49
2023-05-06T03:30:15.383Z,19.51
2023-05-06T03:32:42.748Z,19.43
2023-05-06T03:35:12.152Z,19.39
2023-05-06T03:37:41.374Z,19.20
2023-05-06T03:40:09.183Z,19.23
2023-05-06T03:42:35.817Z,19.19
2023-05-06T03:45:03.084Z,19.33
2023-05-06T03:47:32.138Z,19.39
2023-05-06T03:49:59.233Z,19.42
2023-05-06T03:52:25.995Z,19.41
2023-05-06T03:54:52.728Z,19.40
2023-05-06T03:57:19.240Z,19.43
2023-05-06T03:59:45.783Z,19.40
2023-05-06T04:02:12.567Z,19.42
2023-05-06T04:04:40.232Z,19.36
2023-05-06T04:07:06.772Z,19.25
2023-05-06T04:09:33.414Z,19.31
2023-05-06T04:12:03.387Z,19.07
2023-05-06T04:14:31.281Z,19.26
2023-05-06T04:16:58.446Z,19.28
2023-05-06T04:19:24.992Z,19.25
2023-05-06T04:21:52.026Z,19.29
2023-05-06T04:24:19.810Z,19.27
2023-05-06T04:26:46.533Z,19.31
2023-05-06T04:29:13.820Z,19.22
2023-05-06T04:31:49.004Z,19.24
2023-05-06T04:34:18.040Z,19.30
2023-05-06T04:36:45.927Z,19.25
2023-05-06T04:39:48.673Z,19.37
2023-05-06T04:42:16.229Z,19.35
2023-05-06T04:44:50.172Z,19.31
2023-05-06T04:47:20.382Z,19.30
2023-05-06T04:49:50.221Z,19.21
2023-05-06T04:52:16.915Z,19.27
2023-05-06T04:54:45.480Z,19.40
2023-05-06T04:57:12.521Z,19.43
2023-05-06T04:59:42.496Z,19.56
2023-05-06T05:02:09.137Z,19.62
2023-05-06T05:04:36.379Z,19.76
2023-05-06T05:07:03.040Z,19.84
2023-05-06T05:09:31.233Z,19.96
2023-05-06T05:11:58.151Z,20.08
2023-05-06T05:14:24.678Z,20.19
2023-05-06T05:16:51.822Z,20.19
2023-05-06T05:19:18.419Z,20.29
2023-05-06T05:21:45.234Z,20.33
2023-05-06T05:24:12.999Z,20.33
2023-05-06T05:26:40.225Z,20.28
2023-05-06T05:29:06.823Z,20.41
2023-05-06T05:31:34.270Z,20.30
2023-05-06T05:34:01.623Z,20.37
2023-05-06T05:36:28.505Z,20.54
2023-05-06T05:38:57.575Z,20.60
2023-05-06T05:41:26.686Z,20.63
2023-05-06T05:43:54.480Z,20.46
2023-05-06T05:46:21.401Z,20.47
2023-05-06T05:48:49.423Z,20.63
2023-05-06T05:51:17.923Z,20.65
2023-05-06T05:53:45.566Z,20.49
2023-05-06T05:56:13.267Z,20.75
2023-05-06T05:58:41.749Z,20.85
2023-05-06T06:01:08.973Z,20.64
2023-05-06T06:03:36.436Z,20.85
2023-05-06T06:06:05.414Z,20.87
2023-05-06T06:08:33.110Z,20.90
2023-05-06T06:11:00.974Z,20.92
2023-05-06T06:13:34.253Z,20.98
2023-05-06T06:16:01.008Z,21.00
2023-05-06T06:18:27.683Z,21.11
2023-05-06T06:20:54.244Z,21.13
2023-05-06T06:23:21.582Z,21.18
2023-05-06T06:25:48.175Z,21.22
2023-05-06T06:28:15.493Z,21.35
2023-05-06T06:30:43.365Z,21.25
2023-05-06T06:33:09.975Z,21.36
2023-05-06T06:35:36.609Z,21.18
2023-05-06T06:38:03.211Z,21.29
2023-05-06T06:40:30.303Z,21.22
2023-05-06T06:42:56.828Z,21.15
2023-05-06T06:45:42.120Z,21.02
2023-05-06T06:48:08.714Z,21.16
2023-05-06T06:50:35.370Z,21.13
2023-05-06T06:53:03.596Z,21.28
2023-05-06T06:55:31.394Z,21.16
2023-05-06T06:57:57.914Z,21.19
2023-05-06T07:00:24.577Z,21.28
2023-05-06T07:02:51.111Z,21.45
2023-05-06T07:05:18.296Z,21.45
2023-05-06T07:07:44.920Z,21.56
2023-05-06T07:10:11.594Z,21.70
2023-05-06T07:12:38.179Z,21.72
2023-05-06T07:15:06.829Z,21.75
2023-05-06T07:17:33.691Z,21.56
2023-05-06T07:20:00.760Z,21.80
2023-05-06T07:22:28.920Z,21.96
2023-05-06T07:24:55.731Z,22.25
2023-05-06T07:27:22.330Z,22.13
2023-05-06T07:29:49.106Z,22.34
2023-05-06T07:32:15.872Z,22.24
2023-05-06T07:34:42.531Z,22.26
2023-05-06T07:37:09.080Z,22.43
2023-05-06T07:39:35.825Z,22.50
2023-05-06T07:42:02.354Z,22.54
2023-05-06T07:44:28.886Z,22.41
2023-05-06T07:46:55.851Z,22.52
2023-05-06T07:49:22.550Z,22.58
2023-05-06T07:51:49.063Z,22.69
2023-05-06T07:54:15.745Z,22.71
2023-05-06T07:56:43.908Z,22.55
2023-05-06T07:59:10.436Z,22.57
2023-05-06T08:01:36.983Z,22.59
2023-05-06T08:04:03.751Z,22.70
2023-05-06T08:06:30.418Z,22.76
2023-05-06T08:08:56.934Z,22.86
2023-05-06T08:11:23.628Z,22.90
2023-05-06T08:13:50.266Z,23.01
2023-05-06T08:16:17.172Z,22.85
2023-05-06T08:18:43.731Z,23.03
2023-05-06T08:21:10.961Z,23.09
2023-05-06T08:23:37.775Z,23.20
2023-05-06T08:26:04.409Z,23.05
2023-05-06T08:28:31.529Z,23.25
2023-05-06T08:30:58.033Z,23.08
2023-05-06T08:33:24.605Z,23.14
2023-05-06T08:35:52.132Z,23.17
2023-05-06T08:38:18.736Z,23.42
2023-05-06T08:40:45.470Z,23.43
2023-05-06T08:43:19.892Z,23.51
2023-05-06T08:45:46.473Z,23.47
2023-05-06T08:48:13.210Z,23.45
2023-05-06T08:50:43.168Z,23.67
2023-05-06T08:53:13.624Z,23.83
2023-05-06T08:55:43.539Z,23.85
2023-05-06T08:58:13.472Z,23.77
2023-05-06T09:00:40.240Z,23.82
2023-05-06T09:03:06.955Z,23.57
2023-05-06T09:05:33.711Z,23.60
2023-05-06T09:08:00.348Z,23.69
2023-05-06T09:10:31.855Z,23.99
2023-05-06T09:12:58.388Z,24.15
2023-05-06T09:15:28.508Z,24.23
2023-05-06T09:17:56.040Z,24.12
2023-05-06T09:20:22.688Z,24.03
2023-05-06T09:22:49.354Z,24.27
2023-05-06T09:25:16.285Z,24.22
2023-05-06T09:27:42.859Z,24.06
2023-05-06T09:30:14.370Z,24.42
2023-05-06T09:32:41.868Z,24.25
2023-05-06T09:35:09.912Z,24.38
2023-05-06T09:37:36.661Z,23.97
2023-05-06T09:40:03.485Z,24.04
2023-05-06T09:42:30.780Z,24.20
2023-05-06T09:45:01.642Z,24.57
2023-05-06T09:47:34.670Z,24.80
2023-05-06T09:50:02.653Z,25.00
2023-05-06T09:52:29.874Z,25.21
2023-05-06T09:54:57.340Z,25.38
2023-05-06T09:57:23.987Z,25.49
2023-05-06T09:59:53.753Z,25.09
2023-05-06T10:02:22.466Z,24.90
2023-05-06T10:04:49.697Z,24.93
2023-05-06T10:07:22.569Z,24.77
2023-05-06T10:09:50.691Z,24.92
2023-05-06T10:12:18.699Z,24.79
2023-05-06T10:14:45.265Z,24.75
2023-05-06T10:17:13.742Z,25.10
2023-05-06T10:19:44.767Z,25.20
2023-05-06T10:22:41.296Z,25.24
2023-05-06T10:25:17.366Z,25.40
2023-05-06T10:27:45.174Z,25.51
2023-05-06T10:30:14.844Z,25.57
2023-05-06T10:32:43.421Z,25.58
2023-05-06T10:35:35.784Z,25.36
2023-05-06T10:38:05.214Z,25.20
2023-05-06T10:40:32.146Z,25.40
2023-05-06T10:43:21.213Z,25.53
2023-05-06T10:46:11.161Z,25.50
2023-05-06T10:49:06.210Z,25.96
2023-05-06T10:51:33.930Z,26.07
2023-05-06T10:54:08.263Z,26.31
2023-05-06T10:56:36.148Z,26.50
2023-05-06T10:59:08.346Z,26.89
2023-05-06T11:01:40.039Z,27.25
2023-05-06T11:04:12.034Z,27.67
2023-05-06T11:06:46.133Z,27.68
2023-05-06T11:09:17.888Z,27.65
2023-05-06T11:12:02.574Z,27.41
2023-05-06T11:14:31.241Z,27.36
2023-05-06T11:16:59.568Z,27.09
2023-05-06T11:19:33.988Z,26.54
2023-05-06T11:22:03.663Z,26.49
2023-05-06T11:24:40.193Z,26.63
2023-05-06T11:27:07.445Z,26.19
2023-05-06T11:29:33.992Z,26.05
2023-05-06T11:32:00.764Z,25.95
2023-05-06T11:34:31.813Z,25.65
2023-05-06T11:37:00.643Z,25.87
2023-05-06T11:39:36.626Z,26.18
2023-05-06T11:42:07.367Z,26.26
2023-05-06T11:44:35.744Z,26.49
2023-05-06T11:47:05.902Z,26.79
2023-05-06T11:49:42.761Z,26.90
2023-05-06T11:52:10.679Z,27.14
2023-05-06T11:54:42.302Z,27.61
2023-05-06T11:57:09.963Z,28.09
2023-05-06T11:59:40.875Z,28.25
2023-05-06T12:02:10.237Z,28.39
2023-05-06T12:04:42.738Z,28.04
2023-05-06T12:07:14.068Z,27.43
2023-05-06T12:09:43.357Z,27.71
2023-05-06T12:12:11.019Z,27.62
2023-05-06T12:14:38.711Z,27.77
2023-05-06T12:17:05.651Z,27.90
2023-05-06T12:19:32.834Z,28.37
2023-05-06T12:22:18.898Z,28.07
2023-05-06T12:24:46.783Z,28.29
2023-05-06T12:27:13.403Z,28.02
2023-05-06T12:29:40.319Z,27.96
2023-05-06T12:32:09.465Z,27.58
2023-05-06T12:34:40.306Z,28.30
2023-05-06T12:37:08.505Z,28.97
2023-05-06T12:39:39.319Z,28.91
2023-05-06T12:42:06.638Z,29.34
2023-05-06T12:44:36.154Z,30.02
2023-05-06T12:47:07.309Z,29.75
2023-05-06T12:49:51.328Z,29.18
2023-05-06T12:52:19.206Z,28.79
2023-05-06T12:54:46.179Z,28.36
2023-05-06T12:57:13.092Z,28.35
2023-05-06T12:59:39.807Z,28.30
2023-05-06T13:02:06.873Z,28.16
2023-05-06T13:04:33.422Z,28.34
2023-05-06T13:07:00.051Z,28.50
2023-05-06T13:09:26.797Z,28.85
2023-05-06T13:11:57.207Z,28.82
2023-05-06T13:14:23.875Z,29.23
2023-05-06T13:16:51.200Z,29.93
2023-05-06T13:19:31.457Z,30.53
2023-05-06T13:22:08.328Z,30.19
2023-05-06T13:24:34.933Z,30.19
2023-05-06T13:27:02.137Z,29.78
2023-05-06T13:29:29.679Z,29.64
2023-05-06T13:31:56.454Z,29.29
2023-05-06T13:34:23.047Z,29.21
2023-05-06T13:36:50.674Z,29.00
2023-05-06T13:39:17.254Z,28.89
2023-05-06T13:41:46.537Z,28.80
2023-05-06T13:44:13.846Z,29.05
2023-05-06T13:46:40.438Z,29.28
2023-05-06T13:49:06.968Z,29.48
2023-05-06T13:51:34.507Z,29.52
2023-05-06T13:54:02.177Z,29.61
2023-05-06T13:56:28.700Z,29.52
2023-05-06T13:58:55.371Z,29.44
2023-05-06T14:01:22.801Z,29.36
2023-05-06T14:03:49.345Z,29.12
2023-05-06T14:06:16.253Z,29.38
2023-05-06T14:08:42.961Z,29.59
2023-05-06T14:11:12.386Z,29.43
2023-05-06T14:13:39.790Z,29.13
2023-05-06T14:16:06.888Z,28.74
2023-05-06T14:18:33.843Z,28.31
2023-05-06T14:21:00.456Z,28.29
2023-05-06T14:23:26.962Z,28.83
2023-05-06T14:25:53.495Z,28.71
2023-05-06T14:28:20.156Z,28.52
2023-05-06T14:30:47.477Z,28.21
2023-05-06T14:33:13.993Z,28.40
2023-05-06T14:35:42.182Z,28.55
2023-05-06T14:38:09.636Z,28.52
2023-05-06T14:40:36.904Z,28.61
2023-05-06T14:43:04.053Z,28.38
2023-05-06T14:45:30.946Z,28.77
2023-05-06T14:47:57.627Z,29.17
2023-05-06T14:50:24.160Z,29.33
2023-05-06T14:52:51.024Z,29.29
2023-05-06T14:55:18.023Z,28.96
2023-05-06T14:57:44.574Z,29.54
2023-05-06T15:00:14.567Z,30.32
2023-05-06T15:02:41.984Z,30.82
2023-05-06T15:05:10.102Z,30.66
2023-05-06T15:07:36.904Z,29.91
2023-05-06T15:10:04.119Z,29.95
2023-05-06T15:12:30.954Z,29.09
2023-05-06T15:14:57.586Z,29.30
2023-05-06T15:17:24.724Z,29.44
2023-05-06T15:19:51.529Z,30.21
2023-05-06T15:22:18.319Z,30.02
2023-05-06T15:24:45.270Z,30.02
2023-05-06T15:27:11.810Z,30.09
2023-05-06T15:29:39.125Z,30.77
2023-05-06T15:32:05.944Z,30.87
2023-05-06T15:34:32.604Z,30.76
2023-05-06T15:37:01.550Z,30.35
2023-05-06T15:39:28.522Z,30.25
2023-05-06T15:41:55.157Z,30.10
2023-05-06T15:44:21.744Z,29.72
2023-05-06T15:46:48.291Z,29.54
2023-05-06T15:49:46.784Z,29.30
2023-05-06T15:52:01.665Z,29.25
2023-05-06T15:54:28.775Z,29.06
2023-05-06T15:56:56.267Z,29.39
2023-05-06T15:59:22.951Z,29.40
2023-05-06T16:04:19.319Z,29.19
2023-05-06T16:06:46.050Z,28.88
2023-05-06T16:09:12.678Z,28.19
2023-05-06T16:11:39.203Z,28.48
2023-05-06T16:14:05.801Z,28.67
2023-05-06T16:16:32.454Z,28.52
2023-05-06T16:18:59.069Z,28.38
2023-05-06T16:21:25.697Z,28.49
2023-05-06T16:23:52.301Z,28.48
2023-05-06T16:26:18.890Z,28.12
2023-05-06T16:28:45.540Z,28.17
2023-05-06T16:31:12.210Z,28.24
2023-05-06T16:33:38.839Z,27.94
2023-05-06T16:36:05.808Z,27.71
2023-05-06T16:38:32.329Z,27.89
2023-05-06T16:40:58.952Z,27.95
2023-05-06T16:43:25.632Z,28.00
2023-05-06T16:45:52.168Z,27.91
2023-05-06T16:48:18.999Z,27.68
2023-05-06T16:50:46.014Z,27.64
2023-05-06T16:53:12.616Z,27.72
2023-05-06T16:55:39.174Z,27.52
2023-05-06T16:58:05.787Z,27.61
2023-05-06T17:00:32.692Z,27.65
2023-05-06T17:02:59.502Z,27.50
2023-05-06T17:05:27.935Z,27.64
2023-05-06T17:07:54.471Z,27.57
2023-05-06T17:10:21.936Z,27.63
2023-05-06T17:12:48.494Z,27.66
2023-05-06T17:15:15.100Z,27.66
2023-05-06T17:17:41.763Z,27.64
2023-05-06T17:20:08.927Z,27.62
2023-05-06T17:22:35.768Z,27.61
2023-05-06T17:25:03.525Z,27.53
2023-05-06T17:27:30.238Z,27.46
2023-05-06T17:29:56.909Z,27.36
2023-05-06T17:32:23.460Z,27.33
2023-05-06T17:34:50.104Z,27.28
2023-05-06T17:37:16.689Z,27.24
2023-05-06T17:39:43.206Z,27.07
2023-05-06T17:42:09.887Z,27.06
2023-05-06T17:44:37.976Z,27.00
2023-05-06T17:47:04.576Z,26.96
2023-05-06T17:49:31.150Z,26.87
2023-05-06T17:51:59.308Z,26.80
2023-05-06T17:54:26.760Z,26.78
2023-05-06T17:56:53.363Z,26.76
2023-05-06T17:59:20.115Z,26.70
2023-05-06T18:01:47.334Z,26.62
2023-05-06T18:04:14.284Z,26.63
2023-05-06T18:06:42.307Z,26.51
2023-05-06T18:09:10.271Z,26.43
2023-05-06T18:11:37.995Z,26.22
2023-05-06T18:14:05.332Z,26.03
2023-05-06T18:16:32.118Z,25.82
2023-05-06T18:19:00.755Z,25.73
2023-05-06T18:21:27.740Z,25.67
2023-05-06T18:24:01.895Z,25.50
2023-05-06T18:26:43.858Z,25.53
2023-05-06T18:29:11.872Z,25.35
2023-05-06T18:31:38.463Z,25.26
2023-05-06T18:34:05.010Z,25.16
2023-05-06T18:36:31.926Z,25.10
2023-05-06T18:38:58.515Z,25.03
2023-05-06T18:41:25.063Z,24.96
2023-05-06T18:43:51.687Z,24.87
2023-05-06T18:46:18.412Z,24.79
2023-05-06T18:48:45.354Z,24.70
2023-05-06T18:51:13.719Z,24.75
2023-05-06T18:53:41.179Z,24.61
2023-05-06T18:56:08.673Z,24.59
2023-05-06T18:58:39.468Z,24.54
2023-05-06T19:01:09.969Z,24.50
2023-05-06T19:03:38.681Z,24.37
2023-05-06T19:06:10.444Z,24.26
2023-05-06T19:08:37.220Z,24.18
2023-05-06T19:11:03.847Z,24.11
2023-05-06T19:13:31.198Z,24.03
2023-05-06T19:15:57.737Z,24.01
2023-05-06T19:18:24.227Z,24.01
2023-05-06T19:20:51.017Z,23.96
2023-05-06T19:23:18.026Z,23.87
2023-05-06T19:25:44.639Z,23.76
2023-05-06T19:28:11.887Z,23.68
2023-05-06T19:30:38.516Z,23.71
2023-05-06T19:33:05.324Z,23.71
2023-05-06T19:35:31.986Z,23.62
2023-05-06T19:37:58.814Z,23.62
2023-05-06T19:40:25.411Z,23.51
2023-05-06T19:42:52.196Z,23.54
2023-05-06T19:45:19.513Z,23.50
2023-05-06T19:47:46.343Z,23.43
2023-05-06T19:50:13.329Z,23.34
2023-05-06T19:52:40.379Z,23.42
2023-05-06T19:55:07.482Z,23.29
2023-05-06T19:57:34.268Z,23.24
2023-05-06T20:00:05.172Z,23.22
2023-05-06T20:02:32.891Z,23.23
2023-05-06T20:05:00.615Z,23.11
2023-05-06T20:07:27.416Z,23.15
2023-05-06T20:09:55.866Z,23.07
2023-05-06T20:12:23.696Z,23.09
2023-05-06T20:14:50.333Z,22.97
2023-05-06T20:17:16.961Z,22.91
2023-05-06T20:19:44.835Z,22.89
2023-05-06T20:22:11.767Z,22.83
2023-05-06T20:24:40.762Z,22.80
2023-05-06T20:27:07.327Z,22.77
2023-05-06T20:29:34.065Z,22.78
2023-05-06T20:32:01.023Z,22.76
2023-05-06T20:34:27.849Z,22.77
2023-05-06T20:36:55.235Z,22.72
2023-05-06T20:39:22.078Z,22.69
2023-05-06T20:41:48.712Z,22.63
2023-05-06T20:44:15.484Z,22.62
2023-05-06T20:46:42.010Z,22.59
2023-05-06T20:49:08.607Z,22.57
2023-05-06T20:51:35.227Z,22.58
2023-05-06T20:54:01.850Z,22.55
2023-05-06T20:56:28.626Z,22.52
2023-05-06T20:58:55.838Z,22.42
2023-05-06T21:01:23.576Z,22.43
2023-05-06T21:03:50.599Z,22.31
2023-05-06T21:06:18.704Z,22.31
2023-05-06T21:08:46.402Z,22.27
2023-05-06T21:11:13.349Z,22.16
2023-05-06T21:13:40.117Z,22.11
2023-05-06T21:16:06.627Z,22.10
2023-05-06T21:18:33.243Z,22.04
2023-05-06T21:20:59.965Z,22.04
2023-05-06T21:23:26.718Z,22.02
2023-05-06T21:25:53.238Z,22.00
2023-05-06T21:28:20.131Z,21.97
2023-05-06T21:30:46.740Z,21.97
2023-05-06T21:33:13.350Z,21.87
2023-05-06T21:35:39.869Z,21.90
2023-05-06T21:38:06.749Z,21.84
2023-05-06T21:40:33.334Z,21.81
2023-05-06T21:42:59.904Z,21.79
2023-05-06T21:45:26.729Z,21.77
2023-05-06T21:47:53.552Z,21.71
2023-05-06T21:50:20.307Z,21.69
2023-05-06T21:52:46.902Z,21.69
2023-05-06T21:55:13.679Z,21.74
2023-05-06T21:57:40.692Z,21.74
2023-05-06T22:00:11.765Z,21.63
2023-05-06T22:02:40.121Z,21.45
2023-05-06T22:05:08.249Z,21.35
2023-05-06T22:07:35.799Z,21.34
2023-05-06T22:10:02.654Z,21.39
2023-05-06T22:12:29.257Z,21.41
2023-05-06T22:14:55.872Z,21.38
2023-05-06T22:17:22.460Z,21.29
2023-05-06T22:19:49.298Z,21.26
2023-05-06T22:22:16.464Z,21.26
2023-05-06T22:24:43.056Z,21.22
2023-05-06T22:27:09.652Z,21.24
2023-05-06T22:29:36.377Z,21.20
2023-05-06T22:32:03.200Z,21.19
2023-05-06T22:34:30.096Z,21.18
2023-05-06T22:36:58.361Z,21.22
2023-05-06T22:39:27.184Z,21.04
2023-05-06T22:41:53.849Z,21.06
2023-05-06T22:44:21.028Z,21.03
2023-05-06T22:46:47.682Z,20.93
2023-05-06T22:49:15.776Z,20.99
2023-05-06T22:51:42.451Z,20.94
2023-05-06T22:54:08.985Z,20.90
2023-05-06T22:56:35.488Z,20.96
2023-05-06T22:59:02.053Z,20.95
2023-05-06T23:01:32.010Z,20.96
2023-05-06T23:03:59.354Z,20.98
2023-05-06T23:06:27.592Z,20.92
2023-05-06T23:08:54.143Z,20.87
2023-05-06T23:11:20.743Z,20.84
2023-05-06T23:13:47.404Z,20.77
2023-05-06T23:16:14.594Z,20.77
2023-05-06T23:18:41.510Z,20.78
2023-05-06T23:21:08.277Z,20.78
2023-05-06T23:23:34.813Z,20.83
2023-05-06T23:26:01.341Z,20.79
2023-05-06T23:28:28.004Z,20.71
2023-05-06T23:30:54.608Z,20.61
2023-05-06T23:33:21.186Z,20.59
2023-05-06T23:35:47.719Z,20.64
2023-05-06T23:38:14.362Z,20.62
2023-05-06T23:40:40.891Z,20.57
2023-05-06T23:43:09.684Z,20.53
2023-05-06T23:45:36.197Z,20.49
2023-05-06T23:48:03.220Z,20.63
2023-05-06T23:50:29.829Z,20.58
2023-05-06T23:52:56.341Z,20.63
2023-05-06T23:55:23.033Z,20.46
2023-05-06T23:57:49.532Z,20.52
